MSC Cordoba — A8OF8 — position and weather

sailwx.info

Track history (hours):
 
Tides and Currents Weather Stations Pressure Air Temp Water Temp Dewpoint Dewpoint Depression Visibility Wind Speed Wind Dir Waves Ship Positions

MSC Cordoba

Last reported at 2016-Dec-04 08:32 UTC. Time now 2016-Dec-05 20:46 UTC.
Position N 37°55' E 024°36'.

Length 274 m; draft 12.9 m.

Type: Ship (hazmat cat A). MMSI: 636091473.

Date/timePositionNaut miles runAvg speedWind from/ knotsBaromVisibWave heightAir tempDewpointWater temp
2016-Dec-04 08:32N 37°55' E 024°36'48019.1
2016-Dec-03 07:28N 36°28' E 014°44'1920.8
2016-Dec-03 06:33N 36°32' E 014°21'2121.5
2016-Dec-03 05:33N 36°38' E 013°55'2121.5
2016-Dec-03 04:33N 36°45' E 013°30'90820.9
2016-Dec-01 09:09N 35°59' W 005°16'25717.6
2016-Nov-30 18:33N 38°07' W 009°55'2020.0
2016-Nov-30 17:34N 38°26' W 010°02'2019.8
2016-Nov-30 16:34N 38°45' W 010°07'2019.5
2016-Nov-30 15:34N 39°05' W 010°07'1919.1
2016-Nov-30 14:33N 39°24' W 010°08'59619.2
2016-Nov-29 07:33N 48°51' W 005°52'11619.3
2016-Nov-29 01:32N 49°50' W 003°18'2121.2
2016-Nov-29 00:34N 49°59' W 002°49'2721.7
2016-Nov-28 23:18N 50°07' W 002°09'1520.6
2016-Nov-28 22:33N 50°11' W 001°45'1919.1
2016-Nov-28 21:33N 50°14' W 001°16'4310.8
2016-Nov-28 17:33N 50°27' W 000°11'2221.2
2016-Nov-28 16:30N 50°33' E 000°22'4521.2
2016-Nov-28 14:24N 50°57' E 001°21'1619.4
2016-Nov-28 13:33N 51°09' E 001°40'1817.7
2016-Nov-28 12:33N 51°23' E 001°56'1616.0
2016-Nov-28 11:33N 51°21' E 002°22'1414.5
2016-Nov-28 10:33N 51°22' E 002°45'1313.2
2016-Nov-28 09:34N 51°24' E 003°06'1615.6
2016-Nov-28 08:34N 51°25' E 003°31'10 9.8
2016-Nov-28 07:33N 51°22' E 003°45'1110.7
2016-Nov-28 06:34N 51°24' E 004°02'1010.0
2016-Nov-28 05:33N 51°20' E 004°16'3 2.8
2016-Nov-28 04:32N 51°17' E 004°15'0 0.0
2016-Nov-28 03:31N 51°17' E 004°15'0 0.0
2016-Nov-28 02:31N 51°17' E 004°15'0 0.0
2016-Nov-28 01:28N 51°17' E 004°15'0 0.0
2016-Nov-28 00:24N 51°17' E 004°15'0 0.0
2016-Nov-27 23:33N 51°17' E 004°15'0 0.0
2016-Nov-27 22:32N 51°17' E 004°15'0 0.0
2016-Nov-27 21:29N 51°17' E 004°15'0 0.0
2016-Nov-27 20:31N 51°17' E 004°15'0 0.0
2016-Nov-27 19:19N 51°17' E 004°15'0 0.0
2016-Nov-27 18:33N 51°17' E 004°15'0 0.0
2016-Nov-27 17:33N 51°17' E 004°15'0 0.0
2016-Nov-27 16:30N 51°17' E 004°15'0 0.0
2016-Nov-27 15:29N 51°17' E 004°15'0 0.0
2016-Nov-27 14:29N 51°17' E 004°15'0 0.0
2016-Nov-27 13:16N 51°17' E 004°15'0 0.0
2016-Nov-27 12:31N 51°17' E 004°15'0 0.0
2016-Nov-27 11:30N 51°17' E 004°15'0 0.0
2016-Nov-27 10:30N 51°17' E 004°15'0 0.0
2016-Nov-27 09:08N 51°17' E 004°15'0 0.0
2016-Nov-27 08:26N 51°17' E 004°15'0 0.0
2016-Nov-27 07:26N 51°17' E 004°15'0 0.0
2016-Nov-27 06:25N 51°17' E 004°15'0 0.0
2016-Nov-27 05:25N 51°17' E 004°15'0 0.0
2016-Nov-27 04:30N 51°17' E 004°15'0 0.0
2016-Nov-27 03:30N 51°17' E 004°15'0 0.0
2016-Nov-27 02:33N 51°17' E 004°15'0 0.0
2016-Nov-27 01:29N 51°17' E 004°15'0 0.0
2016-Nov-27 00:32N 51°17' E 004°15'0 0.0
2016-Nov-26 23:29N 51°17' E 004°15'0 0.0
2016-Nov-26 22:28N 51°17' E 004°15'0 0.0
2016-Nov-26 21:33N 51°17' E 004°15'0 0.2
2016-Nov-26 20:33N 51°17' E 004°15'5 4.9
2016-Nov-26 19:33N 51°22' E 004°13'10 9.8
2016-Nov-26 18:34N 51°26' E 003°59'1010.4
2016-Nov-26 17:33N 51°23' E 003°43'8 7.6
2016-Nov-26 16:33N 51°25' E 003°32'1211.7
2016-Nov-26 15:34N 51°24' E 003°13'1514.6
2016-Nov-26 14:34N 51°22' E 002°50'9 9.1
2016-Nov-26 13:33N 51°22' E 002°35'6 5.8
2016-Nov-26 12:33N 51°21' E 002°26'6 6.1
2016-Nov-26 11:33N 51°19' E 002°17'7 7.1
2016-Nov-26 10:33N 51°21' E 002°06'1313.2
2016-Nov-26 09:33N 51°31' E 001°52'1211.9
2016-Nov-26 08:33N 51°42' E 001°45'1211.6
2016-Nov-26 07:33N 51°52' E 001°35'9 9.2
2016-Nov-26 06:34N 51°56' E 001°21'3 2.9
2016-Nov-26 05:33N 51°58' E 001°18'0 0.0
2016-Nov-26 04:33N 51°58' E 001°18'0 0.0
2016-Nov-26 03:32N 51°58' E 001°18'0 0.0
2016-Nov-26 02:32N 51°58' E 001°18'0 0.0
2016-Nov-26 01:31N 51°58' E 001°18'0 0.0
2016-Nov-26 00:31N 51°58' E 001°18'0 0.0
2016-Nov-25 23:33N 51°58' E 001°18'0 0.0
2016-Nov-25 22:33N 51°58' E 001°18'0 0.0
2016-Nov-25 21:32N 51°58' E 001°18'0 0.0
2016-Nov-25 20:29N 51°58' E 001°18'0 0.0
2016-Nov-25 19:32N 51°58' E 001°18'0 0.0
2016-Nov-25 18:31N 51°58' E 001°18'0 0.0
2016-Nov-25 17:28N 51°58' E 001°18'0 0.0
2016-Nov-25 16:33N 51°58' E 001°18'0 0.0
2016-Nov-25 15:33N 51°58' E 001°18'0 0.0
2016-Nov-25 14:32N 51°58' E 001°18'0 0.0
2016-Nov-25 13:32N 51°58' E 001°18'0 0.0
2016-Nov-25 12:32N 51°58' E 001°18'0 0.0
2016-Nov-25 11:31N 51°58' E 001°18'0 0.0
2016-Nov-25 10:31N 51°58' E 001°18'0 0.0
2016-Nov-25 09:33N 51°58' E 001°18'0 0.0
2016-Nov-25 08:33N 51°58' E 001°18'0 0.0
2016-Nov-25 07:32N 51°58' E 001°18'0 0.0
2016-Nov-25 06:32N 51°58' E 001°18'0 0.0
2016-Nov-25 05:32N 51°58' E 001°18'0 0.0
2016-Nov-25 04:28N 51°58' E 001°18'0 0.0
2016-Nov-25 03:28N 51°58' E 001°18'0 0.0
2016-Nov-25 02:33N 51°58' E 001°18'0 0.0
2016-Nov-25 01:33N 51°58' E 001°18'0 0.0
2016-Nov-25 00:32N 51°58' E 001°18'0 0.0
2016-Nov-24 23:32N 51°58' E 001°18'0 0.0
2016-Nov-24 22:32N 51°58' E 001°18'0 0.0
2016-Nov-24 21:31N 51°58' E 001°18'0 0.0
2016-Nov-24 20:31N 51°58' E 001°18'0 0.0
2016-Nov-24 19:33N 51°58' E 001°18'1 1.5
2016-Nov-24 18:33N 51°56' E 001°19'1211.6
2016-Nov-24 17:34N 51°52' E 001°36'1313.0
2016-Nov-24 16:34N 51°41' E 001°48'1717.0
2016-Nov-24 15:33N 51°24' E 001°45'1616.0
2016-Nov-24 14:33N 51°10' E 001°34'8 8.4
2016-Nov-24 13:33N 51°06' E 001°22'1616.2
2016-Nov-24 12:33N 51°13' E 001°44'1818.1
2016-Nov-24 11:33N 51°31' E 001°49'1818.1
2016-Nov-24 10:33N 51°49' E 001°43'1212.3
2016-Nov-24 09:34N 52°01' E 001°49'3 3.0
2016-Nov-24 08:34N 51°58' E 001°47'  
Track history (hours):
 
Tides and Currents Weather Stations Pressure Air Temp Water Temp Dewpoint Dewpoint Depression Visibility Wind Speed Wind Dir Waves Ship Positions

MSC Cordoba

Last reported at 2016-Dec-04 08:32 UTC. Time now 2016-Dec-05 20:46 UTC.
Position N 37°55' E 024°36'.

Length 274 m; draft 12.9 m.

Type: Ship (hazmat cat A). MMSI: 636091473.

Date/timePositionNaut miles runAvg speedWind from/ knotsBaromVisibWave heightAir tempDewpointWater temp
2016-Dec-04 08:32N 37°55' E 024°36'48019.1
2016-Dec-03 07:28N 36°28' E 014°44'1920.8
2016-Dec-03 06:33N 36°32' E 014°21'2121.5
2016-Dec-03 05:33N 36°38' E 013°55'2121.5
2016-Dec-03 04:33N 36°45' E 013°30'90820.9
2016-Dec-01 09:09N 35°59' W 005°16'25717.6
2016-Nov-30 18:33N 38°07' W 009°55'2020.0
2016-Nov-30 17:34N 38°26' W 010°02'2019.8
2016-Nov-30 16:34N 38°45' W 010°07'2019.5
2016-Nov-30 15:34N 39°05' W 010°07'1919.1
2016-Nov-30 14:33N 39°24' W 010°08'59619.2
2016-Nov-29 07:33N 48°51' W 005°52'11619.3
2016-Nov-29 01:32N 49°50' W 003°18'2121.2
2016-Nov-29 00:34N 49°59' W 002°49'2721.7
2016-Nov-28 23:18N 50°07' W 002°09'1520.6
2016-Nov-28 22:33N 50°11' W 001°45'1919.1
2016-Nov-28 21:33N 50°14' W 001°16'4310.8
2016-Nov-28 17:33N 50°27' W 000°11'2221.2
2016-Nov-28 16:30N 50°33' E 000°22'4521.2
2016-Nov-28 14:24N 50°57' E 001°21'1619.4
2016-Nov-28 13:33N 51°09' E 001°40'1817.7
2016-Nov-28 12:33N 51°23' E 001°56'1616.0
2016-Nov-28 11:33N 51°21' E 002°22'1414.5
2016-Nov-28 10:33N 51°22' E 002°45'1313.2
2016-Nov-28 09:34N 51°24' E 003°06'1615.6
2016-Nov-28 08:34N 51°25' E 003°31'10 9.8
2016-Nov-28 07:33N 51°22' E 003°45'1110.7
2016-Nov-28 06:34N 51°24' E 004°02'1010.0
2016-Nov-28 05:33N 51°20' E 004°16'3 2.8
2016-Nov-28 04:32N 51°17' E 004°15'0 0.0
2016-Nov-28 03:31N 51°17' E 004°15'0 0.0
2016-Nov-28 02:31N 51°17' E 004°15'0 0.0
2016-Nov-28 01:28N 51°17' E 004°15'0 0.0
2016-Nov-28 00:24N 51°17' E 004°15'0 0.0
2016-Nov-27 23:33N 51°17' E 004°15'0 0.0
2016-Nov-27 22:32N 51°17' E 004°15'0 0.0
2016-Nov-27 21:29N 51°17' E 004°15'0 0.0
2016-Nov-27 20:31N 51°17' E 004°15'0 0.0
2016-Nov-27 19:19N 51°17' E 004°15'0 0.0
2016-Nov-27 18:33N 51°17' E 004°15'0 0.0
2016-Nov-27 17:33N 51°17' E 004°15'0 0.0
2016-Nov-27 16:30N 51°17' E 004°15'0 0.0
2016-Nov-27 15:29N 51°17' E 004°15'0 0.0
2016-Nov-27 14:29N 51°17' E 004°15'0 0.0
2016-Nov-27 13:16N 51°17' E 004°15'0 0.0
2016-Nov-27 12:31N 51°17' E 004°15'0 0.0
2016-Nov-27 11:30N 51°17' E 004°15'0 0.0
2016-Nov-27 10:30N 51°17' E 004°15'0 0.0
2016-Nov-27 09:08N 51°17' E 004°15'0 0.0
2016-Nov-27 08:26N 51°17' E 004°15'0 0.0
2016-Nov-27 07:26N 51°17' E 004°15'0 0.0
2016-Nov-27 06:25N 51°17' E 004°15'0 0.0
2016-Nov-27 05:25N 51°17' E 004°15'0 0.0
2016-Nov-27 04:30N 51°17' E 004°15'0 0.0
2016-Nov-27 03:30N 51°17' E 004°15'0 0.0
2016-Nov-27 02:33N 51°17' E 004°15'0 0.0
2016-Nov-27 01:29N 51°17' E 004°15'0 0.0
2016-Nov-27 00:32N 51°17' E 004°15'0 0.0
2016-Nov-26 23:29N 51°17' E 004°15'0 0.0
2016-Nov-26 22:28N 51°17' E 004°15'0 0.0
2016-Nov-26 21:33N 51°17' E 004°15'0 0.2
2016-Nov-26 20:33N 51°17' E 004°15'5 4.9
2016-Nov-26 19:33N 51°22' E 004°13'10 9.8
2016-Nov-26 18:34N 51°26' E 003°59'1010.4
2016-Nov-26 17:33N 51°23' E 003°43'8 7.6
2016-Nov-26 16:33N 51°25' E 003°32'1211.7
2016-Nov-26 15:34N 51°24' E 003°13'1514.6
2016-Nov-26 14:34N 51°22' E 002°50'9 9.1
2016-Nov-26 13:33N 51°22' E 002°35'6 5.8
2016-Nov-26 12:33N 51°21' E 002°26'6 6.1
2016-Nov-26 11:33N 51°19' E 002°17'7 7.1
2016-Nov-26 10:33N 51°21' E 002°06'1313.2
2016-Nov-26 09:33N 51°31' E 001°52'1211.9
2016-Nov-26 08:33N 51°42' E 001°45'1211.6
2016-Nov-26 07:33N 51°52' E 001°35'9 9.2
2016-Nov-26 06:34N 51°56' E 001°21'3 2.9
2016-Nov-26 05:33N 51°58' E 001°18'0 0.0
2016-Nov-26 04:33N 51°58' E 001°18'0 0.0
2016-Nov-26 03:32N 51°58' E 001°18'0 0.0
2016-Nov-26 02:32N 51°58' E 001°18'0 0.0
2016-Nov-26 01:31N 51°58' E 001°18'0 0.0
2016-Nov-26 00:31N 51°58' E 001°18'0 0.0
2016-Nov-25 23:33N 51°58' E 001°18'0 0.0
2016-Nov-25 22:33N 51°58' E 001°18'0 0.0
2016-Nov-25 21:32N 51°58' E 001°18'0 0.0
2016-Nov-25 20:29N 51°58' E 001°18'0 0.0
2016-Nov-25 19:32N 51°58' E 001°18'0 0.0
2016-Nov-25 18:31N 51°58' E 001°18'0 0.0
2016-Nov-25 17:28N 51°58' E 001°18'0 0.0
2016-Nov-25 16:33N 51°58' E 001°18'0 0.0
2016-Nov-25 15:33N 51°58' E 001°18'0 0.0
2016-Nov-25 14:32N 51°58' E 001°18'0 0.0
2016-Nov-25 13:32N 51°58' E 001°18'0 0.0
2016-Nov-25 12:32N 51°58' E 001°18'0 0.0
2016-Nov-25 11:31N 51°58' E 001°18'0 0.0
2016-Nov-25 10:31N 51°58' E 001°18'0 0.0
2016-Nov-25 09:33N 51°58' E 001°18'0 0.0
2016-Nov-25 08:33N 51°58' E 001°18'0 0.0
2016-Nov-25 07:32N 51°58' E 001°18'0 0.0
2016-Nov-25 06:32N 51°58' E 001°18'0 0.0
2016-Nov-25 05:32N 51°58' E 001°18'0 0.0
2016-Nov-25 04:28N 51°58' E 001°18'0 0.0
2016-Nov-25 03:28N 51°58' E 001°18'0 0.0
2016-Nov-25 02:33N 51°58' E 001°18'0 0.0
2016-Nov-25 01:33N 51°58' E 001°18'0 0.0
2016-Nov-25 00:32N 51°58' E 001°18'0 0.0
2016-Nov-24 23:32N 51°58' E 001°18'0 0.0
2016-Nov-24 22:32N 51°58' E 001°18'0 0.0
2016-Nov-24 21:31N 51°58' E 001°18'0 0.0
2016-Nov-24 20:31N 51°58' E 001°18'0 0.0
2016-Nov-24 19:33N 51°58' E 001°18'1 1.5
2016-Nov-24 18:33N 51°56' E 001°19'1211.6
2016-Nov-24 17:34N 51°52' E 001°36'1313.0
2016-Nov-24 16:34N 51°41' E 001°48'1717.0
2016-Nov-24 15:33N 51°24' E 001°45'1616.0
2016-Nov-24 14:33N 51°10' E 001°34'8 8.4
2016-Nov-24 13:33N 51°06' E 001°22'1616.2
2016-Nov-24 12:33N 51°13' E 001°44'1818.1
2016-Nov-24 11:33N 51°31' E 001°49'1818.1
2016-Nov-24 10:33N 51°49' E 001°43'1212.3
2016-Nov-24 09:34N 52°01' E 001°49'3 3.0
2016-Nov-24 08:34N 51°58' E 001°47'  

Dump ship's entire track history